sensor_id;sensor_type;location;lat;lon;timestamp;temperature;humidity
54796;DHT22;40693;43.884;20.340;2023-11-19T00:00:47;179.20;2252.80
54796;DHT22;40693;43.884;20.340;2023-11-19T00:03:13;179.20;2252.80
54796;DHT22;40693;43.884;20.340;2023-11-19T00:05:39;179.20;2252.80
54796;DHT22;40693;43.884;20.340;2023-11-19T00:08:05;179.30;2252.80
54796;DHT22;40693;43.884;20.340;2023-11-19T00:10:31;179.30;2252.80
54796;DHT22;40693;43.884;20.340;2023-11-19T00:12:57;179.30;2252.80
54796;DHT22;40693;43.884;20.340;2023-11-19T00:15:23;179.30;2252.80
54796;DHT22;40693;43.884;20.340;2023-11-19T00:17:49;179.30;2252.80
54796;DHT22;40693;43.884;20.340;2023-11-19T00:20:16;179.30;2252.80
54796;DHT22;40693;43.884;20.340;2023-11-19T00:22:43;179.30;2252.80
54796;DHT22;40693;43.884;20.340;2023-11-19T00:25:09;179.30;2252.80
54796;DHT22;40693;43.884;20.340;2023-11-19T00:27:36;179.30;2252.80
54796;DHT22;40693;43.884;20.340;2023-11-19T00:30:04;179.30;2252.80
54796;DHT22;40693;43.884;20.340;2023-11-19T00:32:31;179.20;2252.80
54796;DHT22;40693;43.884;20.340;2023-11-19T00:34:57;179.20;2252.80
54796;DHT22;40693;43.884;20.340;2023-11-19T00:37:23;179.20;2252.80
54796;DHT22;40693;43.884;20.340;2023-11-19T00:39:49;179.20;2252.80
54796;DHT22;40693;43.884;20.340;2023-11-19T00:42:15;179.20;2252.80
54796;DHT22;40693;43.884;20.340;2023-11-19T00:44:41;179.20;2252.80
54796;DHT22;40693;43.884;20.340;2023-11-19T00:47:07;179.20;2252.80
54796;DHT22;40693;43.884;20.340;2023-11-19T00:49:33;179.20;2252.80
54796;DHT22;40693;43.884;20.340;2023-11-19T00:51:59;179.30;2252.80
54796;DHT22;40693;43.884;20.340;2023-11-19T00:54:25;179.30;2252.80
54796;DHT22;40693;43.884;20.340;2023-11-19T00:56:54;179.40;2252.80
54796;DHT22;40693;43.884;20.340;2023-11-19T00:59:20;179.40;2252.80
54796;DHT22;40693;43.884;20.340;2023-11-19T01:01:47;179.40;2252.80
54796;DHT22;40693;43.884;20.340;2023-11-19T01:04:16;179.40;2252.80
54796;DHT22;40693;43.884;20.340;2023-11-19T01:06:42;179.40;2252.80
54796;DHT22;40693;43.884;20.340;2023-11-19T01:09:08;179.40;2252.80
54796;DHT22;40693;43.884;20.340;2023-11-19T01:11:35;179.40;2252.80
54796;DHT22;40693;43.884;20.340;2023-11-19T01:14:00;179.30;2252.80
54796;DHT22;40693;43.884;20.340;2023-11-19T01:16:26;179.40;2252.80
54796;DHT22;40693;43.884;20.340;2023-11-19T01:18:52;179.40;2252.80
54796;DHT22;40693;43.884;20.340;2023-11-19T01:21:18;179.50;2252.80
54796;DHT22;40693;43.884;20.340;2023-11-19T01:23:44;179.50;2252.80
54796;DHT22;40693;43.884;20.340;2023-11-19T01:26:11;179.40;2252.80
54796;DHT22;40693;43.884;20.340;2023-11-19T01:28:41;179.50;2252.80
54796;DHT22;40693;43.884;20.340;2023-11-19T01:31:11;179.50;2252.80
54796;DHT22;40693;43.884;20.340;2023-11-19T01:33:36;179.50;2252.80
54796;DHT22;40693;43.884;20.340;2023-11-19T01:36:02;179.50;2252.80
54796;DHT22;40693;43.884;20.340;2023-11-19T01:38:29;179.80;2252.80
54796;DHT22;40693;43.884;20.340;2023-11-19T01:40:57;179.50;2252.80
54796;DHT22;40693;43.884;20.340;2023-11-19T01:43:37;179.40;2252.80
54796;DHT22;40693;43.884;20.340;2023-11-19T01:46:05;179.50;2252.80
54796;DHT22;40693;43.884;20.340;2023-11-19T01:48:32;179.30;2252.80
54796;DHT22;40693;43.884;20.340;2023-11-19T01:50:59;179.30;2252.80
54796;DHT22;40693;43.884;20.340;2023-11-19T01:53:25;179.20;2252.80
54796;DHT22;40693;43.884;20.340;2023-11-19T01:55:52;179.30;2252.80
54796;DHT22;40693;43.884;20.340;2023-11-19T01:58:18;179.20;2252.80
54796;DHT22;40693;43.884;20.340;2023-11-19T02:00:45;179.20;2252.80
54796;DHT22;40693;43.884;20.340;2023-11-19T02:10:19;179.20;2252.80
54796;DHT22;40693;43.884;20.340;2023-11-19T02:12:45;154.50;2252.80
54796;DHT22;40693;43.884;20.340;2023-11-19T02:15:11;154.50;2252.80
54796;DHT22;40693;43.884;20.340;2023-11-19T02:17:37;179.20;2252.80
54796;DHT22;40693;43.884;20.340;2023-11-19T02:20:04;179.20;2252.80
54796;DHT22;40693;43.884;20.340;2023-11-19T02:22:35;179.20;2252.80
54796;DHT22;40693;43.884;20.340;2023-11-19T02:25:04;179.20;2252.80
54796;DHT22;40693;43.884;20.340;2023-11-19T02:30:14;179.20;2252.80
54796;DHT22;40693;43.884;20.340;2023-11-19T02:32:43;179.20;2252.80
54796;DHT22;40693;43.884;20.340;2023-11-19T02:35:09;179.20;2252.80
54796;DHT22;40693;43.884;20.340;2023-11-19T02:37:35;179.30;2252.80
54796;DHT22;40693;43.884;20.340;2023-11-19T02:40:00;179.40;2252.80
54796;DHT22;40693;43.884;20.340;2023-11-19T02:42:28;179.40;2252.80
54796;DHT22;40693;43.884;20.340;2023-11-19T02:44:54;179.30;2252.80
54796;DHT22;40693;43.884;20.340;2023-11-19T02:47:20;179.30;2252.80
54796;DHT22;40693;43.884;20.340;2023-11-19T02:49:47;179.20;2252.80
54796;DHT22;40693;43.884;20.340;2023-11-19T02:52:13;179.30;2252.80
54796;DHT22;40693;43.884;20.340;2023-11-19T02:54:40;179.30;2252.80
54796;DHT22;40693;43.884;20.340;2023-11-19T02:57:07;179.20;2252.80
54796;DHT22;40693;43.884;20.340;2023-11-19T02:59:39;179.20;2252.80
54796;DHT22;40693;43.884;20.340;2023-11-19T03:02:09;179.20;2252.80
54796;DHT22;40693;43.884;20.340;2023-11-19T03:04:41;154.50;2252.80
54796;DHT22;40693;43.884;20.340;2023-11-19T03:07:09;154.50;2252.80
54796;DHT22;40693;43.884;20.340;2023-11-19T03:09:35;154.50;2252.80
54796;DHT22;40693;43.884;20.340;2023-11-19T03:12:01;154.50;2252.80
54796;DHT22;40693;43.884;20.340;2023-11-19T03:14:27;154.50;2252.80
54796;DHT22;40693;43.884;20.340;2023-11-19T03:16:53;179.20;2252.80
54796;DHT22;40693;43.884;20.340;2023-11-19T03:19:19;179.20;2252.80
54796;DHT22;40693;43.884;20.340;2023-11-19T03:21:45;179.20;2252.80
54796;DHT22;40693;43.884;20.340;2023-11-19T03:24:13;179.20;2252.80
54796;DHT22;40693;43.884;20.340;2023-11-19T03:26:39;154.50;2252.80
54796;DHT22;40693;43.884;20.340;2023-11-19T03:29:04;179.20;2252.80
54796;DHT22;40693;43.884;20.340;2023-11-19T03:31:30;154.50;2252.80
54796;DHT22;40693;43.884;20.340;2023-11-19T03:33:56;179.20;2252.80
54796;DHT22;40693;43.884;20.340;2023-11-19T03:36:22;154.50;2252.80
54796;DHT22;40693;43.884;20.340;2023-11-19T03:38:48;179.20;2252.80
54796;DHT22;40693;43.884;20.340;2023-11-19T03:41:14;154.50;2252.80
54796;DHT22;40693;43.884;20.340;2023-11-19T03:43:40;154.50;2252.80
54796;DHT22;40693;43.884;20.340;2023-11-19T03:46:19;154.40;2252.80
54796;DHT22;40693;43.884;20.340;2023-11-19T03:48:47;154.40;2252.80
54796;DHT22;40693;43.884;20.340;2023-11-19T03:51:13;154.40;2252.80
54796;DHT22;40693;43.884;20.340;2023-11-19T03:53:43;154.30;2252.80
54796;DHT22;40693;43.884;20.340;2023-11-19T03:56:09;154.30;2252.80
54796;DHT22;40693;43.884;20.340;2023-11-19T03:58:35;154.30;2252.80
54796;DHT22;40693;43.884;20.340;2023-11-19T04:01:01;154.30;2252.80
54796;DHT22;40693;43.884;20.340;2023-11-19T04:03:28;154.20;2252.80
54796;DHT22;40693;43.884;20.340;2023-11-19T04:05:53;154.10;2252.80
54796;DHT22;40693;43.884;20.340;2023-11-19T04:08:19;154.00;2252.80
54796;DHT22;40693;43.884;20.340;2023-11-19T04:10:45;154.10;2252.80
54796;DHT22;40693;43.884;20.340;2023-11-19T04:13:11;154.10;2252.80
54796;DHT22;40693;43.884;20.340;2023-11-19T04:15:36;154.00;2252.80
54796;DHT22;40693;43.884;20.340;2023-11-19T04:18:02;154.00;2252.80
54796;DHT22;40693;43.884;20.340;2023-11-19T04:20:28;154.10;2252.80
54796;DHT22;40693;43.884;20.340;2023-11-19T04:22:53;154.10;2252.80
54796;DHT22;40693;43.884;20.340;2023-11-19T04:25:19;154.00;2252.80
54796;DHT22;40693;43.884;20.340;2023-11-19T04:27:45;154.10;2252.80
54796;DHT22;40693;43.884;20.340;2023-11-19T04:30:13;154.00;2252.80
54796;DHT22;40693;43.884;20.340;2023-11-19T04:32:39;154.00;2252.80
54796;DHT22;40693;43.884;20.340;2023-11-19T04:35:05;154.00;2252.80
54796;DHT22;40693;43.884;20.340;2023-11-19T04:37:32;154.00;2252.80
54796;DHT22;40693;43.884;20.340;2023-11-19T04:39:58;154.00;2252.80
54796;DHT22;40693;43.884;20.340;2023-11-19T04:42:25;154.00;2252.80
54796;DHT22;40693;43.884;20.340;2023-11-19T04:44:51;154.00;2252.80
54796;DHT22;40693;43.884;20.340;2023-11-19T04:47:16;154.00;2252.80
54796;DHT22;40693;43.884;20.340;2023-11-19T04:49:42;153.90;2252.80
54796;DHT22;40693;43.884;20.340;2023-11-19T04:52:11;153.90;2252.80
54796;DHT22;40693;43.884;20.340;2023-11-19T04:54:46;153.90;2252.80
54796;DHT22;40693;43.884;20.340;2023-11-19T04:57:13;154.00;2252.80
54796;DHT22;40693;43.884;20.340;2023-11-19T04:59:39;153.90;2252.80
54796;DHT22;40693;43.884;20.340;2023-11-19T05:02:05;153.90;2252.80
54796;DHT22;40693;43.884;20.340;2023-11-19T05:04:31;154.00;2252.80
54796;DHT22;40693;43.884;20.340;2023-11-19T05:06:57;154.00;2252.80
54796;DHT22;40693;43.884;20.340;2023-11-19T05:09:23;154.00;2252.80
54796;DHT22;40693;43.884;20.340;2023-11-19T05:11:48;154.00;2252.80
54796;DHT22;40693;43.884;20.340;2023-11-19T05:14:14;153.90;2252.80
54796;DHT22;40693;43.884;20.340;2023-11-19T05:16:40;153.90;2252.80
54796;DHT22;40693;43.884;20.340;2023-11-19T05:19:07;153.90;2252.80
54796;DHT22;40693;43.884;20.340;2023-11-19T05:21:32;153.80;2252.80
54796;DHT22;40693;43.884;20.340;2023-11-19T05:23:59;153.70;2252.80
54796;DHT22;40693;43.884;20.340;2023-11-19T05:26:24;153.70;2252.80
54796;DHT22;40693;43.884;20.340;2023-11-19T05:28:50;153.70;2252.80
54796;DHT22;40693;43.884;20.340;2023-11-19T05:31:17;153.70;2252.80
54796;DHT22;40693;43.884;20.340;2023-11-19T05:33:43;153.70;2252.80
54796;DHT22;40693;43.884;20.340;2023-11-19T05:36:11;153.60;2252.80
54796;DHT22;40693;43.884;20.340;2023-11-19T05:38:38;153.60;2252.80
54796;DHT22;40693;43.884;20.340;2023-11-19T05:41:04;128.90;2252.80
54796;DHT22;40693;43.884;20.340;2023-11-19T05:43:33;128.90;2252.80
54796;DHT22;40693;43.884;20.340;2023-11-19T05:45:58;128.90;2252.80
54796;DHT22;40693;43.884;20.340;2023-11-19T05:48:26;128.90;2252.80
54796;DHT22;40693;43.884;20.340;2023-11-19T05:50:52;128.80;2252.80
54796;DHT22;40693;43.884;20.340;2023-11-19T05:53:17;128.80;2252.80
54796;DHT22;40693;43.884;20.340;2023-11-19T05:55:43;128.80;2252.80
54796;DHT22;40693;43.884;20.340;2023-11-19T05:58:21;128.80;2252.80
54796;DHT22;40693;43.884;20.340;2023-11-19T06:00:47;128.80;2252.80
54796;DHT22;40693;43.884;20.340;2023-11-19T06:03:13;128.70;2252.80
54796;DHT22;40693;43.884;20.340;2023-11-19T06:05:39;128.60;2252.80
54796;DHT22;40693;43.884;20.340;2023-11-19T06:08:05;128.60;2252.80
54796;DHT22;40693;43.884;20.340;2023-11-19T06:10:32;128.50;2252.80
54796;DHT22;40693;43.884;20.340;2023-11-19T06:13:01;128.60;2252.80
54796;DHT22;40693;43.884;20.340;2023-11-19T06:15:30;128.70;2252.80
54796;DHT22;40693;43.884;20.340;2023-11-19T06:17:56;128.80;2252.80
54796;DHT22;40693;43.884;20.340;2023-11-19T06:20:25;128.80;2252.80
54796;DHT22;40693;43.884;20.340;2023-11-19T06:22:50;128.90;2252.80
54796;DHT22;40693;43.884;20.340;2023-11-19T06:25:16;128.90;2252.80
54796;DHT22;40693;43.884;20.340;2023-11-19T06:27:42;153.60;2252.80
54796;DHT22;40693;43.884;20.340;2023-11-19T06:30:08;128.90;2252.80
54796;DHT22;40693;43.884;20.340;2023-11-19T06:32:35;128.90;2252.80
54796;DHT22;40693;43.884;20.340;2023-11-19T06:35:01;128.90;2252.80
54796;DHT22;40693;43.884;20.340;2023-11-19T06:37:26;128.90;2252.80
54796;DHT22;40693;43.884;20.340;2023-11-19T06:39:52;153.60;2252.80
54796;DHT22;40693;43.884;20.340;2023-11-19T06:42:18;153.60;2252.80
54796;DHT22;40693;43.884;20.340;2023-11-19T06:44:44;153.70;2252.80
54796;DHT22;40693;43.884;20.340;2023-11-19T06:47:09;153.80;2252.80
54796;DHT22;40693;43.884;20.340;2023-11-19T06:49:35;153.90;2252.80
54796;DHT22;40693;43.884;20.340;2023-11-19T06:52:01;154.00;2252.80
54796;DHT22;40693;43.884;20.340;2023-11-19T06:54:27;154.10;2252.80
54796;DHT22;40693;43.884;20.340;2023-11-19T06:56:52;154.20;2252.80
54796;DHT22;40693;43.884;20.340;2023-11-19T06:59:18;154.30;2252.80
54796;DHT22;40693;43.884;20.340;2023-11-19T07:01:44;154.30;2252.80
54796;DHT22;40693;43.884;20.340;2023-11-19T07:04:13;154.40;2252.80
54796;DHT22;40693;43.884;20.340;2023-11-19T07:06:39;154.40;2252.80
54796;DHT22;40693;43.884;20.340;2023-11-19T07:09:07;154.50;2252.80
54796;DHT22;40693;43.884;20.340;2023-11-19T07:11:37;179.20;2252.80
54796;DHT22;40693;43.884;20.340;2023-11-19T07:14:04;179.30;2227.20
54796;DHT22;40693;43.884;20.340;2023-11-19T07:16:30;179.30;2201.60
54796;DHT22;40693;43.884;20.340;2023-11-19T07:18:56;179.30;2176.00
54796;DHT22;40693;43.884;20.340;2023-11-19T07:21:22;179.40;2176.00
54796;DHT22;40693;43.884;20.340;2023-11-19T07:23:47;179.50;2124.80
54796;DHT22;40693;43.884;20.340;2023-11-19T07:26:13;179.40;2150.40
54796;DHT22;40693;43.884;20.340;2023-11-19T07:28:39;179.40;2124.80
54796;DHT22;40693;43.884;20.340;2023-11-19T07:31:07;179.30;2124.80
54796;DHT22;40693;43.884;20.340;2023-11-19T07:33:33;179.40;2124.80
54796;DHT22;40693;43.884;20.340;2023-11-19T07:35:59;179.40;2099.20
54796;DHT22;40693;43.884;20.340;2023-11-19T07:38:25;179.40;2124.80
54796;DHT22;40693;43.884;20.340;2023-11-19T07:40:50;179.50;2099.20
54796;DHT22;40693;43.884;20.340;2023-11-19T07:43:16;179.50;2099.20
54796;DHT22;40693;43.884;20.340;2023-11-19T07:45:42;179.60;2099.20
54796;DHT22;40693;43.884;20.340;2023-11-19T07:48:09;179.60;2073.60
54796;DHT22;40693;43.884;20.340;2023-11-19T07:50:35;179.70;2073.60
54796;DHT22;40693;43.884;20.340;2023-11-19T07:53:01;179.80;2048.00
54796;DHT22;40693;43.884;20.340;2023-11-19T07:55:29;179.80;2048.00
54796;DHT22;40693;43.884;20.340;2023-11-19T07:57:56;179.80;2048.00
54796;DHT22;40693;43.884;20.340;2023-11-19T08:00:22;179.80;2048.00
54796;DHT22;40693;43.884;20.340;2023-11-19T08:02:47;179.90;2048.00
54796;DHT22;40693;43.884;20.340;2023-11-19T08:05:13;180.00;2022.40
54796;DHT22;40693;43.884;20.340;2023-11-19T08:07:39;180.00;1996.80
54796;DHT22;40693;43.884;20.340;2023-11-19T08:10:05;180.10;1971.20
54796;DHT22;40693;43.884;20.340;2023-11-19T08:12:31;180.10;1996.80
54796;DHT22;40693;43.884;20.340;2023-11-19T08:14:57;204.80;1996.80
54796;DHT22;40693;43.884;20.340;2023-11-19T08:17:24;204.80;1971.20
54796;DHT22;40693;43.884;20.340;2023-11-19T08:19:50;205.00;1971.20
54796;DHT22;40693;43.884;20.340;2023-11-19T08:22:16;205.00;1971.20
54796;DHT22;40693;43.884;20.340;2023-11-19T08:24:42;205.00;1945.60
54796;DHT22;40693;43.884;20.340;2023-11-19T08:27:09;205.10;1945.60
54796;DHT22;40693;43.884;20.340;2023-11-19T08:29:34;205.20;1920.00
54796;DHT22;40693;43.884;20.340;2023-11-19T08:32:01;205.30;1920.00
54796;DHT22;40693;43.884;20.340;2023-11-19T08:34:28;205.40;1920.00
54796;DHT22;40693;43.884;20.340;2023-11-19T08:36:54;205.50;1894.40
54796;DHT22;40693;43.884;20.340;2023-11-19T08:39:21;205.60;1894.40
54796;DHT22;40693;43.884;20.340;2023-11-19T08:41:49;205.70;1868.80
54796;DHT22;40693;43.884;20.340;2023-11-19T08:44:16;230.40;1868.80
54796;DHT22;40693;43.884;20.340;2023-11-19T08:46:50;230.60;1843.20
54796;DHT22;40693;43.884;20.340;2023-11-19T08:49:16;230.70;1843.20
54796;DHT22;40693;43.884;20.340;2023-11-19T08:51:42;230.80;1817.60
54796;DHT22;40693;43.884;20.340;2023-11-19T08:54:08;230.90;1817.60
54796;DHT22;40693;43.884;20.340;2023-11-19T08:56:34;231.10;1792.00
54796;DHT22;40693;43.884;20.340;2023-11-19T08:59:01;256.00;1766.40
54796;DHT22;40693;43.884;20.340;2023-11-19T09:01:26;256.20;1715.20
54796;DHT22;40693;43.884;20.340;2023-11-19T09:03:52;256.70;1715.20
54796;DHT22;40693;43.884;20.340;2023-11-19T09:06:18;281.90;1689.60
54796;DHT22;40693;43.884;20.340;2023-11-19T09:08:44;307.40;1664.00
54796;DHT22;40693;43.884;20.340;2023-11-19T09:11:09;308.10;1587.20
54796;DHT22;40693;43.884;20.340;2023-11-19T09:13:35;333.30;1561.60
54796;DHT22;40693;43.884;20.340;2023-11-19T09:16:01;358.80;1484.80
54796;DHT22;40693;43.884;20.340;2023-11-19T09:18:30;384.50;1459.20
54796;DHT22;40693;43.884;20.340;2023-11-19T09:20:57;410.30;1356.80
54796;DHT22;40693;43.884;20.340;2023-11-19T09:23:23;436.00;1305.60
54796;DHT22;40693;43.884;20.340;2023-11-19T09:25:50;461.10;1305.60
54796;DHT22;40693;43.884;20.340;2023-11-19T09:28:16;461.40;1254.40
54796;DHT22;40693;43.884;20.340;2023-11-19T09:30:42;461.70;1228.80
54796;DHT22;40693;43.884;20.340;2023-11-19T09:33:08;486.50;1228.80
54796;DHT22;40693;43.884;20.340;2023-11-19T09:35:35;486.80;1177.60
54796;DHT22;40693;43.884;20.340;2023-11-19T09:38:01;486.50;1203.20
54796;DHT22;40693;43.884;20.340;2023-11-19T09:40:27;461.70;1177.60
54796;DHT22;40693;43.884;20.340;2023-11-19T09:42:54;461.40;1203.20
54796;DHT22;40693;43.884;20.340;2023-11-19T09:45:21;460.80;1203.20
54796;DHT22;40693;43.884;20.340;2023-11-19T09:47:47;435.70;1228.80
54796;DHT22;40693;43.884;20.340;2023-11-19T09:50:17;435.30;1228.80
54796;DHT22;40693;43.884;20.340;2023-11-19T09:52:47;410.50;1254.40
54796;DHT22;40693;43.884;20.340;2023-11-19T09:55:13;410.00;1280.00
54796;DHT22;40693;43.884;20.340;2023-11-19T09:57:40;410.00;1305.60
54796;DHT22;40693;43.884;20.340;2023-11-19T10:00:08;384.50;1280.00
54796;DHT22;40693;43.884;20.340;2023-11-19T10:02:36;359.30;1331.20
54796;DHT22;40693;43.884;20.340;2023-11-19T10:05:07;358.90;1356.80
54796;DHT22;40693;43.884;20.340;2023-11-19T10:07:34;358.70;1382.40
54796;DHT22;40693;43.884;20.340;2023-11-19T10:10:03;358.70;1382.40
54796;DHT22;40693;43.884;20.340;2023-11-19T10:12:30;358.50;1382.40
54796;DHT22;40693;43.884;20.340;2023-11-19T10:14:57;358.50;1408.00
54796;DHT22;40693;43.884;20.340;2023-11-19T10:17:33;358.50;1382.40
54796;DHT22;40693;43.884;20.340;2023-11-19T10:19:59;333.70;1408.00
54796;DHT22;40693;43.884;20.340;2023-11-19T10:22:25;333.30;1408.00
54796;DHT22;40693;43.884;20.340;2023-11-19T10:24:52;333.20;1433.60
54796;DHT22;40693;43.884;20.340;2023-11-19T10:27:18;333.40;1433.60
54796;DHT22;40693;43.884;20.340;2023-11-19T10:29:48;333.50;1433.60
54796;DHT22;40693;43.884;20.340;2023-11-19T10:32:14;333.50;1408.00
54796;DHT22;40693;43.884;20.340;2023-11-19T10:34:43;333.50;1408.00
54796;DHT22;40693;43.884;20.340;2023-11-19T10:37:09;333.40;1408.00
54796;DHT22;40693;43.884;20.340;2023-11-19T10:39:54;333.70;1408.00
54796;DHT22;40693;43.884;20.340;2023-11-19T10:42:20;333.60;1408.00
54796;DHT22;40693;43.884;20.340;2023-11-19T10:44:46;333.50;1408.00
54796;DHT22;40693;43.884;20.340;2023-11-19T10:47:13;333.50;1408.00
54796;DHT22;40693;43.884;20.340;2023-11-19T10:49:39;333.40;1408.00
54796;DHT22;40693;43.884;20.340;2023-11-19T10:52:08;333.40;1433.60
54796;DHT22;40693;43.884;20.340;2023-11-19T10:54:34;333.50;1408.00
54796;DHT22;40693;43.884;20.340;2023-11-19T10:57:02;333.50;1382.40
54796;DHT22;40693;43.884;20.340;2023-11-19T10:59:31;333.60;1408.00
54796;DHT22;40693;43.884;20.340;2023-11-19T11:01:57;358.40;1382.40
54796;DHT22;40693;43.884;20.340;2023-11-19T11:04:25;358.40;1382.40
54796;DHT22;40693;43.884;20.340;2023-11-19T11:06:58;333.70;1382.40
54796;DHT22;40693;43.884;20.340;2023-11-19T11:09:30;333.70;1382.40
54796;DHT22;40693;43.884;20.340;2023-11-19T11:11:55;358.60;1382.40
54796;DHT22;40693;43.884;20.340;2023-11-19T11:14:24;358.80;1356.80
54796;DHT22;40693;43.884;20.340;2023-11-19T11:16:51;358.60;1356.80
54796;DHT22;40693;43.884;20.340;2023-11-19T11:19:18;358.60;1382.40
54796;DHT22;40693;43.884;20.340;2023-11-19T11:21:50;358.90;1356.80
54796;DHT22;40693;43.884;20.340;2023-11-19T11:24:26;359.00;1356.80
54796;DHT22;40693;43.884;20.340;2023-11-19T11:30:02;358.70;1356.80
54796;DHT22;40693;43.884;20.340;2023-11-19T11:32:45;358.60;1356.80
54796;DHT22;40693;43.884;20.340;2023-11-19T11:38:06;358.80;1331.20
54796;DHT22;40693;43.884;20.340;2023-11-19T11:40:32;359.00;1331.20
54796;DHT22;40693;43.884;20.340;2023-11-19T11:42:58;359.30;1331.20
54796;DHT22;40693;43.884;20.340;2023-11-19T11:45:39;359.30;1280.00
54796;DHT22;40693;43.884;20.340;2023-11-19T11:48:12;384.10;1305.60
54796;DHT22;40693;43.884;20.340;2023-11-19T11:50:52;384.10;1280.00
54796;DHT22;40693;43.884;20.340;2023-11-19T11:53:19;384.10;1280.00
54796;DHT22;40693;43.884;20.340;2023-11-19T11:58:17;359.30;1305.60
54796;DHT22;40693;43.884;20.340;2023-11-19T12:00:43;384.10;1305.60
54796;DHT22;40693;43.884;20.340;2023-11-19T12:03:09;384.70;1280.00
54796;DHT22;40693;43.884;20.340;2023-11-19T12:05:44;384.90;1228.80
54796;DHT22;40693;43.884;20.340;2023-11-19T12:08:11;384.90;1228.80
54796;DHT22;40693;43.884;20.340;2023-11-19T12:13:09;409.70;1254.40
54796;DHT22;40693;43.884;20.340;2023-11-19T12:18:24;409.60;1280.00
54796;DHT22;40693;43.884;20.340;2023-11-19T12:20:51;410.00;1254.40
54796;DHT22;40693;43.884;20.340;2023-11-19T12:23:17;410.20;1203.20
54796;DHT22;40693;43.884;20.340;2023-11-19T12:25:43;410.50;1203.20
54796;DHT22;40693;43.884;20.340;2023-11-19T12:28:14;435.40;1203.20
54796;DHT22;40693;43.884;20.340;2023-11-19T12:30:41;435.30;1177.60
54796;DHT22;40693;43.884;20.340;2023-11-19T12:33:08;435.60;1203.20
54796;DHT22;40693;43.884;20.340;2023-11-19T12:35:44;435.80;1203.20
54796;DHT22;40693;43.884;20.340;2023-11-19T12:38:24;435.60;1177.60
54796;DHT22;40693;43.884;20.340;2023-11-19T12:41:03;435.20;1203.20
54796;DHT22;40693;43.884;20.340;2023-11-19T12:43:29;410.50;1228.80
54796;DHT22;40693;43.884;20.340;2023-11-19T12:45:56;435.30;1203.20
54796;DHT22;40693;43.884;20.340;2023-11-19T12:48:21;435.30;1203.20
54796;DHT22;40693;43.884;20.340;2023-11-19T12:50:57;410.50;1203.20
54796;DHT22;40693;43.884;20.340;2023-11-19T12:53:24;410.40;1203.20
54796;DHT22;40693;43.884;20.340;2023-11-19T12:55:51;410.40;1203.20
54796;DHT22;40693;43.884;20.340;2023-11-19T12:58:33;410.30;1177.60
54796;DHT22;40693;43.884;20.340;2023-11-19T13:01:06;410.30;1203.20
54796;DHT22;40693;43.884;20.340;2023-11-19T13:03:34;410.30;1203.20
54796;DHT22;40693;43.884;20.340;2023-11-19T13:06:04;410.20;1203.20
54796;DHT22;40693;43.884;20.340;2023-11-19T13:08:47;410.20;1228.80
54796;DHT22;40693;43.884;20.340;2023-11-19T13:11:34;410.20;1203.20
54796;DHT22;40693;43.884;20.340;2023-11-19T13:14:03;410.20;1203.20
54796;DHT22;40693;43.884;20.340;2023-11-19T13:16:30;410.30;1203.20
54796;DHT22;40693;43.884;20.340;2023-11-19T13:18:56;410.50;1203.20
54796;DHT22;40693;43.884;20.340;2023-11-19T13:21:23;435.20;1177.60
54796;DHT22;40693;43.884;20.340;2023-11-19T13:23:49;435.30;1177.60
54796;DHT22;40693;43.884;20.340;2023-11-19T13:26:15;410.50;1177.60
54796;DHT22;40693;43.884;20.340;2023-11-19T13:28:41;410.30;1203.20
54796;DHT22;40693;43.884;20.340;2023-11-19T13:31:07;410.20;1228.80
54796;DHT22;40693;43.884;20.340;2023-11-19T13:33:33;410.00;1228.80
54796;DHT22;40693;43.884;20.340;2023-11-19T13:35:59;409.90;1228.80
54796;DHT22;40693;43.884;20.340;2023-11-19T13:38:33;409.70;1228.80
54796;DHT22;40693;43.884;20.340;2023-11-19T13:40:59;384.90;1203.20
54796;DHT22;40693;43.884;20.340;2023-11-19T13:43:25;409.70;1254.40
54796;DHT22;40693;43.884;20.340;2023-11-19T13:45:51;409.60;1254.40
54796;DHT22;40693;43.884;20.340;2023-11-19T13:48:18;409.70;1254.40
54796;DHT22;40693;43.884;20.340;2023-11-19T13:50:44;384.90;1228.80
54796;DHT22;40693;43.884;20.340;2023-11-19T13:53:10;384.70;1254.40
54796;DHT22;40693;43.884;20.340;2023-11-19T13:55:36;384.40;1254.40
54796;DHT22;40693;43.884;20.340;2023-11-19T13:58:02;384.40;1254.40
54796;DHT22;40693;43.884;20.340;2023-11-19T14:00:28;384.50;1254.40
54796;DHT22;40693;43.884;20.340;2023-11-19T14:02:53;384.50;1254.40
54796;DHT22;40693;43.884;20.340;2023-11-19T14:05:19;384.50;1254.40
54796;DHT22;40693;43.884;20.340;2023-11-19T14:07:45;384.40;1254.40
54796;DHT22;40693;43.884;20.340;2023-11-19T14:10:14;384.40;1280.00
54796;DHT22;40693;43.884;20.340;2023-11-19T14:12:41;384.40;1254.40
54796;DHT22;40693;43.884;20.340;2023-11-19T14:15:09;384.40;1254.40
54796;DHT22;40693;43.884;20.340;2023-11-19T14:17:36;384.30;1254.40
54796;DHT22;40693;43.884;20.340;2023-11-19T14:20:02;384.20;1280.00
54796;DHT22;40693;43.884;20.340;2023-11-19T14:22:41;384.10;1305.60
54796;DHT22;40693;43.884;20.340;2023-11-19T14:25:08;384.10;1305.60
54796;DHT22;40693;43.884;20.340;2023-11-19T14:27:40;384.10;1305.60
54796;DHT22;40693;43.884;20.340;2023-11-19T14:30:08;384.10;1305.60
54796;DHT22;40693;43.884;20.340;2023-11-19T14:32:38;384.00;1305.60
54796;DHT22;40693;43.884;20.340;2023-11-19T14:35:05;384.10;1305.60
54796;DHT22;40693;43.884;20.340;2023-11-19T14:37:31;384.00;1331.20
54796;DHT22;40693;43.884;20.340;2023-11-19T14:39:57;384.00;1356.80
54796;DHT22;40693;43.884;20.340;2023-11-19T14:42:23;384.00;1331.20
54796;DHT22;40693;43.884;20.340;2023-11-19T14:44:53;359.30;1356.80
54796;DHT22;40693;43.884;20.340;2023-11-19T14:47:22;359.30;1382.40
54796;DHT22;40693;43.884;20.340;2023-11-19T14:49:48;359.20;1408.00
54796;DHT22;40693;43.884;20.340;2023-11-19T14:52:14;359.10;1408.00
54796;DHT22;40693;43.884;20.340;2023-11-19T14:54:40;358.90;1433.60
54796;DHT22;40693;43.884;20.340;2023-11-19T14:57:06;358.90;1433.60
54796;DHT22;40693;43.884;20.340;2023-11-19T14:59:38;358.80;1433.60